createdAt,value
2022-08-21T00:02:05.099Z,11.70
2022-08-21T00:04:33.138Z,12.30
2022-08-21T00:07:01.150Z,12.52
2022-08-21T00:09:29.124Z,11.50
2022-08-21T00:11:58.453Z,11.15
2022-08-21T00:14:26.500Z,10.95
2022-08-21T00:17:00.319Z,11.02
2022-08-21T00:19:28.944Z,11.43
2022-08-21T00:21:57.601Z,11.88
2022-08-21T00:24:28.273Z,11.27
2022-08-21T00:26:56.320Z,11.75
2022-08-21T00:29:25.724Z,10.88
2022-08-21T00:31:54.328Z,11.82
2022-08-21T00:34:22.594Z,11.38
2022-08-21T00:36:50.639Z,10.23
2022-08-21T00:39:18.658Z,11.65
2022-08-21T00:41:47.024Z,10.18
2022-08-21T00:44:16.733Z,9.85
2022-08-21T00:46:47.068Z,11.13
2022-08-21T00:49:15.620Z,10.32
2022-08-21T00:51:47.928Z,12.93
2022-08-21T00:54:19.395Z,11.88
2022-08-21T00:56:49.969Z,12.60
2022-08-21T00:59:20.618Z,10.88
2022-08-21T01:01:50.898Z,12.48
2022-08-21T01:04:19.269Z,13.93
2022-08-21T01:06:47.713Z,12.55
2022-08-21T01:09:16.020Z,16.48
2022-08-21T01:11:44.847Z,12.90
2022-08-21T01:14:13.840Z,12.57
2022-08-21T01:16:44.041Z,15.55
2022-08-21T01:19:13.948Z,16.13
2022-08-21T01:21:43.947Z,14.63
2022-08-21T01:24:13.091Z,16.10
2022-08-21T01:26:42.541Z,16.33
2022-08-21T01:29:16.418Z,16.33
2022-08-21T01:31:44.849Z,14.82
2022-08-21T01:34:13.537Z,14.57
2022-08-21T01:36:43.225Z,14.38
2022-08-21T01:39:11.220Z,13.68
2022-08-21T01:41:39.268Z,13.20
2022-08-21T01:44:07.469Z,12.85
2022-08-21T01:46:35.533Z,15.10
2022-08-21T01:49:03.720Z,15.73
2022-08-21T01:51:31.812Z,13.75
2022-08-21T01:54:01.415Z,14.07
2022-08-21T01:56:29.917Z,14.63
2022-08-21T01:58:57.968Z,13.27
2022-08-21T02:01:26.019Z,13.25
2022-08-21T02:03:54.364Z,12.18
2022-08-21T02:06:25.543Z,12.00
2022-08-21T02:08:53.912Z,12.63
2022-08-21T02:11:23.487Z,13.07
2022-08-21T02:13:51.496Z,10.52
2022-08-21T02:16:19.672Z,12.68
2022-08-21T02:18:48.238Z,14.07
2022-08-21T02:21:16.512Z,15.00
2022-08-21T02:23:44.639Z,13.77
2022-08-21T02:26:13.126Z,13.73
2022-08-21T02:28:43.225Z,13.52
2022-08-21T02:31:11.586Z,14.38
2022-08-21T02:33:39.960Z,13.60
2022-08-21T02:36:09.116Z,12.00
2022-08-21T02:38:39.222Z,11.80
2022-08-21T02:41:08.543Z,12.82
2022-08-21T02:43:39.767Z,11.98
2022-08-21T02:46:11.468Z,12.15
2022-08-21T02:48:39.989Z,16.23
2022-08-21T02:51:12.335Z,15.90
2022-08-21T02:53:40.912Z,14.98
2022-08-21T02:56:12.736Z,12.52
2022-08-21T02:58:44.492Z,11.95
2022-08-21T03:01:15.032Z,11.73
2022-08-21T03:03:45.400Z,10.88
2022-08-21T03:06:16.161Z,11.80
2022-08-21T03:08:45.946Z,10.50
2022-08-21T03:11:14.320Z,10.88
2022-08-21T03:13:44.543Z,11.02
2022-08-21T03:16:14.314Z,10.18
2022-08-21T03:18:42.363Z,11.65
2022-08-21T03:21:10.412Z,11.25
2022-08-21T03:23:40.635Z,9.93
2022-08-21T03:26:12.458Z,10.77
2022-08-21T03:28:40.929Z,9.50
2022-08-21T03:31:09.562Z,9.98
2022-08-21T03:33:38.872Z,9.30
2022-08-21T03:36:10.186Z,9.32
2022-08-21T03:38:39.577Z,9.70
2022-08-21T03:41:08.645Z,9.18
2022-08-21T03:43:37.336Z,9.43
2022-08-21T03:46:06.785Z,10.15
2022-08-21T03:48:36.250Z,8.38
2022-08-21T03:51:07.287Z,9.55
2022-08-21T03:53:35.992Z,10.07
2022-08-21T03:56:04.992Z,10.63
2022-08-21T03:58:33.175Z,10.38
2022-08-21T04:01:02.492Z,10.20
2022-08-21T04:03:31.173Z,14.27
2022-08-21T04:05:59.188Z,15.60
2022-08-21T04:08:28.659Z,14.65
2022-08-21T04:11:00.502Z,15.48
2022-08-21T04:13:29.803Z,14.45
2022-08-21T04:15:59.003Z,16.55
2022-08-21T04:18:27.314Z,17.38
2022-08-21T04:20:57.943Z,16.75
2022-08-21T04:23:28.129Z,13.68
2022-08-21T04:25:57.963Z,11.50
2022-08-21T04:28:28.818Z,10.52
2022-08-21T04:30:57.749Z,16.90
2022-08-21T04:33:26.270Z,21.73
2022-08-21T04:35:54.365Z,19.83
2022-08-21T04:38:22.390Z,20.67
2022-08-21T04:40:53.220Z,13.60
2022-08-21T04:43:22.441Z,11.32
2022-08-21T04:45:51.675Z,11.40
2022-08-21T04:48:25.720Z,10.80
2022-08-21T04:50:57.829Z,10.93
2022-08-21T04:53:31.930Z,10.73
2022-08-21T04:56:06.380Z,11.95
2022-08-21T04:58:35.364Z,12.27
2022-08-21T05:01:04.971Z,13.05
2022-08-21T05:03:35.181Z,13.95
2022-08-21T05:06:07.182Z,12.88
2022-08-21T05:08:35.839Z,12.45
2022-08-21T05:11:06.403Z,11.98
2022-08-21T05:13:35.280Z,12.20
2022-08-21T05:16:03.793Z,11.77
2022-08-21T05:18:31.782Z,10.98
2022-08-21T05:21:00.037Z,11.55
2022-08-21T05:23:28.400Z,12.90
2022-08-21T05:25:57.023Z,12.95
2022-08-21T05:28:26.908Z,12.07
2022-08-21T05:30:55.553Z,11.43
2022-08-21T05:33:24.892Z,13.00
2022-08-21T05:35:54.068Z,11.77
2022-08-21T05:38:22.027Z,11.43
2022-08-21T05:40:50.110Z,10.98
2022-08-21T05:43:18.144Z,11.63
2022-08-21T05:45:48.203Z,10.70
2022-08-21T05:48:18.602Z,11.57
2022-08-21T05:50:48.183Z,11.82
2022-08-21T05:53:18.383Z,11.60
2022-08-21T05:55:47.344Z,9.50
2022-08-21T05:58:16.719Z,12.90
2022-08-21T06:00:45.294Z,12.48
2022-08-21T06:03:17.824Z,12.77
2022-08-21T06:05:46.518Z,12.32
2022-08-21T06:08:15.802Z,12.52
2022-08-21T06:10:44.269Z,11.75
2022-08-21T06:13:12.821Z,13.00
2022-08-21T06:15:41.012Z,12.80
2022-08-21T06:18:09.185Z,12.50
2022-08-21T06:20:39.300Z,12.23
2022-08-21T06:23:07.721Z,11.73
2022-08-21T06:25:36.526Z,12.23
2022-08-21T06:28:06.635Z,9.07
2022-08-21T06:30:35.395Z,12.35
2022-08-21T06:33:03.882Z,11.32
2022-08-21T06:35:34.568Z,12.15
2022-08-21T06:38:04.590Z,12.65
2022-08-21T06:40:35.056Z,12.60
2022-08-21T06:43:08.956Z,12.60
2022-08-21T06:45:37.246Z,13.75
2022-08-21T06:48:05.838Z,12.30
2022-08-21T06:50:34.045Z,12.45
2022-08-21T06:53:05.434Z,12.38
2022-08-21T06:55:34.077Z,11.48
2022-08-21T06:58:02.161Z,9.80
2022-08-21T07:00:31.112Z,12.05
2022-08-21T07:03:00.276Z,13.55
2022-08-21T07:05:29.310Z,13.30
2022-08-21T07:07:57.935Z,12.82
2022-08-21T07:10:27.756Z,13.60
2022-08-21T07:13:00.117Z,11.48
2022-08-21T07:15:30.781Z,12.13
2022-08-21T07:18:00.225Z,12.50
2022-08-21T07:20:29.492Z,11.43
2022-08-21T07:22:58.646Z,11.18
2022-08-21T07:25:28.407Z,11.07
2022-08-21T07:27:57.163Z,13.57
2022-08-21T07:30:28.361Z,11.63
2022-08-21T07:32:56.914Z,12.40
2022-08-21T07:35:29.102Z,10.93
2022-08-21T07:37:59.788Z,11.15
2022-08-21T07:40:30.507Z,12.25
2022-08-21T07:42:58.768Z,12.60
2022-08-21T07:45:27.389Z,12.68
2022-08-21T07:47:57.448Z,12.70
2022-08-21T07:50:26.460Z,11.63
2022-08-21T07:52:54.758Z,11.80
2022-08-21T07:55:23.585Z,11.93
2022-08-21T07:57:52.958Z,12.85
2022-08-21T08:00:24.549Z,13.85
2022-08-21T08:02:55.097Z,12.43
2022-08-21T08:05:26.926Z,12.07
2022-08-21T08:07:55.038Z,13.07
2022-08-21T08:10:24.308Z,11.75
2022-08-21T08:12:55.550Z,13.23
2022-08-21T08:15:26.669Z,13.40
2022-08-21T08:17:55.740Z,13.73
2022-08-21T08:20:26.058Z,13.65
2022-08-21T08:22:55.343Z,13.93
2022-08-21T08:25:24.836Z,14.23
2022-08-21T08:27:54.373Z,10.93
2022-08-21T08:30:24.658Z,13.98
2022-08-21T08:32:52.795Z,13.93
2022-08-21T08:35:23.662Z,15.02
2022-08-21T08:37:53.327Z,12.82
2022-08-21T08:40:31.079Z,12.30
2022-08-21T08:43:01.029Z,12.75
2022-08-21T08:45:33.573Z,14.35
2022-08-21T08:48:07.089Z,13.15
2022-08-21T08:50:47.466Z,14.35
2022-08-21T08:53:23.103Z,13.38
2022-08-21T08:55:53.950Z,16.00
2022-08-21T08:58:27.031Z,15.07
2022-08-21T09:00:56.999Z,17.58
2022-08-21T09:03:26.147Z,15.63
2022-08-21T09:06:02.142Z,15.75
2022-08-21T09:08:50.200Z,15.82
2022-08-21T09:11:24.759Z,16.15
2022-08-21T09:14:05.874Z,18.33
2022-08-21T09:16:48.424Z,16.92
2022-08-21T09:19:35.161Z,16.33
2022-08-21T09:22:10.683Z,16.48
2022-08-21T09:24:51.956Z,16.85
2022-08-21T09:27:21.774Z,15.27
2022-08-21T09:29:55.198Z,14.82
2022-08-21T09:32:36.726Z,15.27
2022-08-21T09:35:09.692Z,16.40
2022-08-21T09:37:49.150Z,17.58
2022-08-21T09:40:33.596Z,16.40
2022-08-21T09:43:05.111Z,17.35
2022-08-21T09:45:36.559Z,17.58
2022-08-21T09:48:12.507Z,18.88
2022-08-21T09:50:41.707Z,18.67
2022-08-21T09:53:19.787Z,19.17
2022-08-21T09:56:14.576Z,18.50
2022-08-21T09:58:45.667Z,17.17
2022-08-21T10:01:19.787Z,15.13
2022-08-21T10:04:03.394Z,17.33
2022-08-21T10:06:31.636Z,14.70
2022-08-21T10:09:07.518Z,14.50
2022-08-21T10:11:36.246Z,15.15
2022-08-21T10:14:15.623Z,14.23
2022-08-21T10:17:00.943Z,15.38
2022-08-21T10:19:50.316Z,14.93
2022-08-21T10:22:30.891Z,13.07
2022-08-21T10:25:10.298Z,13.82
2022-08-21T10:27:46.577Z,13.82
2022-08-21T10:30:16.876Z,14.40
2022-08-21T10:33:05.239Z,14.55
2022-08-21T10:35:37.855Z,13.07
2022-08-21T10:38:52.538Z,14.05
2022-08-21T10:41:30.583Z,13.13
2022-08-21T10:44:06.191Z,13.07
2022-08-21T10:46:44.561Z,13.15
2022-08-21T10:49:24.393Z,14.88
2022-08-21T10:51:58.215Z,13.77
2022-08-21T10:54:37.040Z,11.93
2022-08-21T10:57:11.840Z,13.68
2022-08-21T10:59:48.396Z,13.82
2022-08-21T11:02:22.838Z,12.93
2022-08-21T11:04:58.952Z,12.68
2022-08-21T11:07:34.207Z,12.93
2022-08-21T11:10:10.281Z,12.50
2022-08-21T11:12:48.373Z,12.02
2022-08-21T11:15:30.601Z,11.88
2022-08-21T11:18:06.086Z,12.18
2022-08-21T11:20:43.977Z,11.57
2022-08-21T11:23:19.837Z,11.63
2022-08-21T11:25:53.738Z,11.57
2022-08-21T11:28:28.605Z,10.75
2022-08-21T11:31:03.986Z,11.90
2022-08-21T11:33:44.684Z,9.63
2022-08-21T11:36:23.050Z,10.15
2022-08-21T11:38:59.127Z,8.57
2022-08-21T11:41:32.893Z,7.70
2022-08-21T11:44:12.284Z,8.05
2022-08-21T11:46:49.345Z,8.93
2022-08-21T11:49:32.533Z,7.30
2022-08-21T11:52:12.188Z,8.32
2022-08-21T11:54:48.452Z,7.45
2022-08-21T11:57:21.856Z,7.38
2022-08-21T11:59:58.960Z,7.45
2022-08-21T12:02:33.589Z,6.95
2022-08-21T12:05:08.224Z,6.38
2022-08-21T12:07:41.328Z,6.70
2022-08-21T12:10:13.534Z,5.95
2022-08-21T12:12:44.157Z,5.85
2022-08-21T12:15:21.383Z,5.68
2022-08-21T12:18:01.603Z,5.35
2022-08-21T12:20:50.667Z,4.97
2022-08-21T12:23:30.136Z,5.80
2022-08-21T12:26:27.331Z,5.20
2022-08-21T12:29:09.224Z,4.68
2022-08-21T12:31:37.285Z,5.68
2022-08-21T12:34:12.022Z,4.55
2022-08-21T12:36:46.068Z,4.20
2022-08-21T12:39:21.183Z,3.95
2022-08-21T12:41:56.975Z,4.50
2022-08-21T12:44:34.140Z,4.78
2022-08-21T12:47:05.909Z,4.30
2022-08-21T12:49:37.072Z,4.30
2022-08-21T12:52:13.016Z,3.97
2022-08-21T12:54:45.174Z,3.28
2022-08-21T12:57:23.120Z,4.20
2022-08-21T12:59:59.236Z,3.35
2022-08-21T13:02:31.641Z,4.00
2022-08-21T13:05:03.667Z,4.20
2022-08-21T13:07:34.404Z,3.42
2022-08-21T13:10:07.453Z,3.25
2022-08-21T13:12:37.632Z,3.70
2022-08-21T13:15:10.943Z,3.42
2022-08-21T13:17:42.371Z,3.90
2022-08-21T13:20:20.703Z,3.60
2022-08-21T13:22:48.760Z,3.53
2022-08-21T13:25:21.136Z,4.00
2022-08-21T13:28:01.247Z,3.80
2022-08-21T13:30:29.356Z,3.20
2022-08-21T13:33:00.810Z,2.50
2022-08-21T13:35:33.155Z,1.98
2022-08-21T13:38:03.188Z,2.05
2022-08-21T13:40:40.729Z,2.08
2022-08-21T13:43:14.561Z,2.33
2022-08-21T13:45:52.418Z,2.20
2022-08-21T13:48:21.391Z,2.63
2022-08-21T13:50:49.733Z,2.30
2022-08-21T13:53:31.578Z,3.05
2022-08-21T13:56:02.318Z,2.95
2022-08-21T13:58:33.146Z,3.38
2022-08-21T14:01:05.052Z,2.85
2022-08-21T14:03:37.176Z,2.67
2022-08-21T14:06:14.358Z,1.65
2022-08-21T14:08:43.913Z,1.45
2022-08-21T14:11:15.155Z,1.55
2022-08-21T14:13:46.117Z,1.10
2022-08-21T14:16:18.211Z,1.35
2022-08-21T14:18:53.384Z,1.45
2022-08-21T14:21:33.848Z,1.33
2022-08-21T14:24:05.406Z,1.55
2022-08-21T14:26:43.987Z,1.65
2022-08-21T14:29:15.151Z,1.75
2022-08-21T14:31:43.799Z,1.50
2022-08-21T14:34:19.259Z,1.50
2022-08-21T14:36:49.520Z,1.48
2022-08-21T14:39:21.336Z,1.77
2022-08-21T14:41:51.314Z,1.75
2022-08-21T14:44:20.986Z,1.85
2022-08-21T14:46:56.342Z,1.77
2022-08-21T14:49:28.659Z,2.13
2022-08-21T14:51:58.561Z,1.92
2022-08-21T14:54:31.592Z,2.05
2022-08-21T14:57:05.563Z,2.38
2022-08-21T14:59:34.734Z,2.08
2022-08-21T15:02:05.018Z,1.92
2022-08-21T15:04:33.269Z,2.05
2022-08-21T15:07:01.320Z,2.45
2022-08-21T15:09:29.603Z,2.28
2022-08-21T15:12:01.183Z,2.45
2022-08-21T15:14:32.820Z,3.10
2022-08-21T15:17:00.983Z,3.20
2022-08-21T15:19:30.513Z,2.95
2022-08-21T15:21:59.178Z,2.80
2022-08-21T15:24:28.608Z,3.08
2022-08-21T15:26:57.795Z,3.10
2022-08-21T15:29:28.979Z,2.97
2022-08-21T15:32:05.443Z,3.08
2022-08-21T15:34:33.778Z,3.30
2022-08-21T15:37:01.750Z,3.30
2022-08-21T15:39:31.360Z,2.90
2022-08-21T15:42:10.587Z,3.17
2022-08-21T15:44:40.116Z,3.20
2022-08-21T15:47:13.749Z,3.40
2022-08-21T15:49:43.668Z,3.15
2022-08-21T15:52:12.834Z,3.72
2022-08-21T15:54:40.895Z,3.78
2022-08-21T15:57:10.955Z,3.28
2022-08-21T15:59:43.423Z,2.80
2022-08-21T16:02:16.308Z,4.60
2022-08-21T16:04:45.430Z,4.13
2022-08-21T16:07:13.853Z,4.15
2022-08-21T16:09:41.926Z,5.82
2022-08-21T16:12:13.023Z,5.97
2022-08-21T16:14:42.250Z,6.38
2022-08-21T16:17:15.832Z,7.53
2022-08-21T16:19:44.176Z,8.07
2022-08-21T16:22:13.280Z,8.00
2022-08-21T16:24:41.351Z,7.90
2022-08-21T16:27:10.501Z,6.80
2022-08-21T16:29:39.659Z,6.40
2022-08-21T16:32:08.959Z,7.53
2022-08-21T16:34:40.297Z,6.88
2022-08-21T16:37:08.337Z,4.95
2022-08-21T16:39:37.823Z,5.75
2022-08-21T16:42:06.830Z,5.93
2022-08-21T16:44:35.518Z,5.03
2022-08-21T16:47:05.722Z,6.22
2022-08-21T16:49:33.722Z,5.57
2022-08-21T16:52:03.489Z,5.07
2022-08-21T16:54:34.236Z,4.95
2022-08-21T16:57:04.290Z,4.15
2022-08-21T16:59:32.728Z,4.32
2022-08-21T17:02:00.991Z,4.38
2022-08-21T17:04:30.344Z,3.92
2022-08-21T17:06:58.404Z,4.18
2022-08-21T17:09:27.895Z,3.80
2022-08-21T17:11:55.895Z,3.60
2022-08-21T17:14:25.386Z,2.95
2022-08-21T17:16:56.354Z,2.35
2022-08-21T17:19:24.831Z,2.25
2022-08-21T17:21:52.936Z,2.47
2022-08-21T17:24:21.080Z,1.90
2022-08-21T17:26:50.965Z,2.15
2022-08-21T17:29:21.400Z,1.90
2022-08-21T17:31:49.413Z,1.70
2022-08-21T17:34:17.572Z,2.13
2022-08-21T17:36:45.641Z,1.85
2022-08-21T17:39:16.059Z,2.22
2022-08-21T17:41:56.324Z,1.73
2022-08-21T17:44:26.778Z,1.60
2022-08-21T17:46:54.882Z,1.45
2022-08-21T17:49:23.081Z,1.50
2022-08-21T17:51:57.234Z,2.35
2022-08-21T17:54:25.691Z,4.20
2022-08-21T17:56:56.500Z,3.58
2022-08-21T17:59:25.692Z,4.68
2022-08-21T18:02:01.147Z,3.75
2022-08-21T18:04:31.827Z,3.35
2022-08-21T18:06:59.852Z,3.70
2022-08-21T18:09:28.406Z,3.38
2022-08-21T18:12:00.214Z,2.83
2022-08-21T18:14:37.412Z,2.55
2022-08-21T18:17:08.479Z,1.73
2022-08-21T18:19:36.671Z,1.88
2022-08-21T18:22:17.079Z,3.10
2022-08-21T18:24:45.967Z,3.00
2022-08-21T18:27:16.121Z,3.08
2022-08-21T18:29:47.476Z,2.35
2022-08-21T18:32:30.554Z,1.20
2022-08-21T18:35:03.218Z,1.88
2022-08-21T18:37:32.067Z,1.08
2022-08-21T18:40:00.600Z,0.77
2022-08-21T18:42:34.625Z,0.98
2022-08-21T18:45:03.999Z,0.57
2022-08-21T18:47:37.262Z,0.50
2022-08-21T18:50:10.726Z,0.80
2022-08-21T18:52:41.785Z,0.60
2022-08-21T18:58:13.556Z,0.77
2022-08-21T19:00:47.919Z,0.70
2022-08-21T19:03:23.626Z,0.60
2022-08-21T19:05:54.878Z,0.90
2022-08-21T19:08:27.225Z,1.10
2022-08-21T19:10:58.363Z,1.50
2022-08-21T19:13:28.865Z,1.20
2022-08-21T19:16:03.078Z,1.20
2022-08-21T19:18:35.278Z,1.33
2022-08-21T19:21:05.834Z,1.23
2022-08-21T19:23:36.725Z,1.20
2022-08-21T19:26:13.094Z,1.50
2022-08-21T19:28:45.925Z,1.05
2022-08-21T19:31:23.679Z,1.30
2022-08-21T19:34:01.536Z,1.17
2022-08-21T19:36:35.168Z,0.90
2022-08-21T19:41:59.437Z,0.90
2022-08-21T19:44:33.644Z,0.82
2022-08-21T19:47:05.850Z,0.82
2022-08-21T19:49:37.998Z,0.93
2022-08-21T19:52:13.843Z,0.85
2022-08-21T19:54:43.183Z,0.70
2022-08-21T19:57:14.506Z,0.90
2022-08-21T19:59:45.774Z,0.60
2022-08-21T20:02:19.914Z,0.65
2022-08-21T20:07:39.261Z,0.80
2022-08-21T20:10:10.499Z,0.90
2022-08-21T20:12:39.246Z,1.00
2022-08-21T20:15:11.119Z,1.10
2022-08-21T20:17:41.892Z,0.85
2022-08-21T20:20:11.238Z,0.63
2022-08-21T20:22:42.772Z,0.82
2022-08-21T20:25:11.113Z,0.80
2022-08-21T20:27:40.945Z,0.68
2022-08-21T20:30:11.913Z,0.85
2022-08-21T20:32:40.079Z,1.17
2022-08-21T20:35:13.597Z,0.85
2022-08-21T20:37:43.147Z,0.60
2022-08-21T20:40:15.260Z,0.60
2022-08-21T20:42:51.708Z,0.57
2022-08-21T20:45:23.582Z,0.77
2022-08-21T20:47:55.183Z,0.47
2022-08-21T20:50:28.180Z,0.40
2022-08-21T20:53:03.298Z,0.43
2022-08-21T20:55:33.796Z,0.50
2022-08-21T20:58:07.111Z,0.35
2022-08-21T21:00:41.044Z,0.50
2022-08-21T21:03:14.695Z,0.57
2022-08-21T21:05:51.341Z,0.50
2022-08-21T21:08:25.269Z,0.50
2022-08-21T21:10:58.219Z,0.30
2022-08-21T21:13:33.956Z,0.30
2022-08-21T21:16:12.894Z,0.50
2022-08-21T21:18:43.928Z,0.20
2022-08-21T21:21:17.996Z,0.40
2022-08-21T21:23:52.000Z,0.40
2022-08-21T21:26:29.345Z,0.35
2022-08-21T21:29:01.521Z,0.63
2022-08-21T21:31:34.573Z,0.43
2022-08-21T21:34:02.747Z,0.40
2022-08-21T21:36:43.795Z,0.30
2022-08-21T21:45:22.819Z,0.47
2022-08-21T21:48:14.192Z,0.38
2022-08-21T21:50:54.072Z,0.50
2022-08-21T21:53:51.506Z,0.50
2022-08-21T21:59:29.905Z,0.82
2022-08-21T22:02:04.332Z,2.30
2022-08-21T22:07:40.051Z,2.60
2022-08-21T22:10:30.298Z,2.38
2022-08-21T22:13:11.070Z,2.25
2022-08-21T22:15:41.484Z,2.00
2022-08-21T22:18:12.974Z,2.40
2022-08-21T22:20:52.329Z,2.63
2022-08-21T22:23:25.421Z,3.30
2022-08-21T22:25:57.262Z,2.20
2022-08-21T22:28:27.655Z,3.15
2022-08-21T22:31:11.261Z,2.67
2022-08-21T22:33:39.352Z,3.63
2022-08-21T22:36:19.982Z,2.40
2022-08-21T22:38:48.489Z,3.40
2022-08-21T22:41:27.856Z,3.92
2022-08-21T22:43:59.795Z,4.03
2022-08-21T22:46:51.443Z,3.80
2022-08-21T22:49:37.551Z,3.38
2022-08-21T22:52:20.588Z,3.20
2022-08-21T22:54:53.105Z,2.70
2022-08-21T22:57:27.730Z,3.30
2022-08-21T23:00:01.472Z,2.45
2022-08-21T23:02:38.721Z,2.50
2022-08-21T23:05:17.463Z,3.60
2022-08-21T23:07:49.684Z,3.78
2022-08-21T23:10:26.089Z,3.33
2022-08-21T23:12:59.239Z,3.47
2022-08-21T23:15:33.323Z,4.10
2022-08-21T23:18:12.304Z,5.05
2022-08-21T23:20:55.613Z,5.53
2022-08-21T23:23:28.291Z,4.95
2022-08-21T23:26:17.358Z,4.72
2022-08-21T23:28:59.343Z,5.05
2022-08-21T23:31:32.288Z,4.80
2022-08-21T23:34:15.926Z,4.07
2022-08-21T23:37:48.407Z,4.43
2022-08-21T23:40:28.758Z,4.10
2022-08-21T23:43:10.458Z,2.50
2022-08-21T23:45:48.878Z,2.92
2022-08-21T23:48:31.880Z,3.10
2022-08-21T23:51:04.431Z,3.42
2022-08-21T23:53:44.236Z,3.95
2022-08-21T23:56:32.885Z,4.45
2022-08-21T23:59:04.861Z,4.30
